createdAt,value
2022-08-25T00:02:09.830Z,17.38
2022-08-25T00:04:37.181Z,17.33
2022-08-25T00:07:07.283Z,17.31
2022-08-25T00:09:34.998Z,17.28
2022-08-25T00:12:05.160Z,17.27
2022-08-25T00:14:36.770Z,17.34
2022-08-25T00:17:04.996Z,17.40
2022-08-25T00:19:35.133Z,17.47
2022-08-25T00:22:03.547Z,17.47
2022-08-25T00:24:30.700Z,17.48
2022-08-25T00:26:58.787Z,17.52
2022-08-25T00:29:31.921Z,17.47
2022-08-25T00:31:58.460Z,17.45
2022-08-25T00:34:34.104Z,17.44
2022-08-25T00:37:02.098Z,17.40
2022-08-25T00:39:28.972Z,17.39
2022-08-25T00:41:57.577Z,17.41
2022-08-25T00:44:28.079Z,17.44
2022-08-25T00:46:57.841Z,17.45
2022-08-25T00:49:29.157Z,17.46
2022-08-25T00:52:04.751Z,17.47
2022-08-25T00:54:45.555Z,17.40
2022-08-25T00:57:14.797Z,17.37
2022-08-25T00:59:44.661Z,17.35
2022-08-25T01:02:15.445Z,17.33
2022-08-25T01:04:48.962Z,17.28
2022-08-25T01:07:19.446Z,17.27
2022-08-25T01:09:48.308Z,17.23
2022-08-25T01:12:15.659Z,17.31
2022-08-25T01:14:46.636Z,17.29
2022-08-25T01:17:14.103Z,17.22
2022-08-25T01:19:40.898Z,17.19
2022-08-25T01:22:08.747Z,17.16
2022-08-25T01:24:37.567Z,17.13
2022-08-25T01:27:08.403Z,17.08
2022-08-25T01:29:36.078Z,17.05
2022-08-25T01:32:06.346Z,17.01
2022-08-25T01:34:35.966Z,17.04
2022-08-25T01:37:04.928Z,16.99
2022-08-25T01:39:38.984Z,16.90
2022-08-25T01:42:19.048Z,16.85
2022-08-25T01:44:47.794Z,16.80
2022-08-25T01:47:14.742Z,16.82
2022-08-25T01:49:41.754Z,16.80
2022-08-25T01:52:25.079Z,16.77
2022-08-25T01:54:52.186Z,16.79
2022-08-25T01:57:18.926Z,16.78
2022-08-25T01:59:45.812Z,16.79
2022-08-25T02:02:12.531Z,16.77
2022-08-25T02:04:39.615Z,16.75
2022-08-25T02:07:11.104Z,16.68
2022-08-25T02:09:38.630Z,16.69
2022-08-25T02:12:06.004Z,16.75
2022-08-25T02:14:32.776Z,16.77
2022-08-25T02:16:59.471Z,16.80
2022-08-25T02:19:26.515Z,16.85
2022-08-25T02:21:53.744Z,16.77
2022-08-25T02:24:20.664Z,16.70
2022-08-25T02:26:47.371Z,16.70
2022-08-25T02:29:14.667Z,16.70
2022-08-25T02:31:41.434Z,16.67
2022-08-25T02:34:09.524Z,16.66
2022-08-25T02:36:37.850Z,16.68
2022-08-25T02:39:06.731Z,16.67
2022-08-25T02:41:33.683Z,16.67
2022-08-25T02:44:02.585Z,16.63
2022-08-25T02:46:29.813Z,16.64
2022-08-25T02:48:57.600Z,16.67
2022-08-25T02:51:25.930Z,16.70
2022-08-25T02:53:52.677Z,16.74
2022-08-25T02:56:20.627Z,16.76
2022-08-25T02:58:48.247Z,16.85
2022-08-25T03:01:16.000Z,16.80
2022-08-25T03:03:44.834Z,16.84
2022-08-25T03:06:14.471Z,16.85
2022-08-25T03:08:42.190Z,16.85
2022-08-25T03:11:09.435Z,16.89
2022-08-25T03:13:36.828Z,16.90
2022-08-25T03:16:05.569Z,16.92
2022-08-25T03:18:39.538Z,16.93
2022-08-25T03:21:07.078Z,16.95
2022-08-25T03:23:33.906Z,16.95
2022-08-25T03:26:19.129Z,16.93
2022-08-25T03:28:45.948Z,16.91
2022-08-25T03:31:12.733Z,16.96
2022-08-25T03:33:40.114Z,16.96
2022-08-25T03:36:08.645Z,16.97
2022-08-25T03:38:38.205Z,16.97
2022-08-25T03:41:32.782Z,17.01
2022-08-25T03:44:01.519Z,16.98
2022-08-25T03:46:34.977Z,16.99
2022-08-25T03:49:04.336Z,16.99
2022-08-25T03:51:46.957Z,17.00
2022-08-25T03:54:16.353Z,17.04
2022-08-25T03:56:43.562Z,17.08
2022-08-25T03:59:10.275Z,17.06
2022-08-25T04:01:42.093Z,17.00
2022-08-25T04:04:11.239Z,16.96
2022-08-25T04:06:40.124Z,16.92
2022-08-25T04:09:07.311Z,16.91
2022-08-25T04:11:34.050Z,16.90
2022-08-25T04:14:02.305Z,16.95
2022-08-25T04:16:31.610Z,16.94
2022-08-25T04:19:00.586Z,17.00
2022-08-25T04:21:28.175Z,17.02
2022-08-25T04:23:56.202Z,17.03
2022-08-25T04:26:27.101Z,17.04
2022-08-25T04:28:56.162Z,17.08
2022-08-25T04:31:23.453Z,17.09
2022-08-25T04:33:50.814Z,17.10
2022-08-25T04:36:21.436Z,17.14
2022-08-25T04:38:49.708Z,17.24
2022-08-25T04:41:20.337Z,17.27
2022-08-25T04:43:47.126Z,17.25
2022-08-25T04:46:25.579Z,17.28
2022-08-25T04:48:54.863Z,17.38
2022-08-25T04:51:29.459Z,17.43
2022-08-25T04:54:01.173Z,17.44
2022-08-25T04:56:30.309Z,17.49
2022-08-25T04:58:57.211Z,17.59
2022-08-25T05:01:25.662Z,17.62
2022-08-25T05:03:55.570Z,17.67
2022-08-25T05:06:23.002Z,17.71
2022-08-25T05:08:50.097Z,17.73
2022-08-25T05:11:18.255Z,17.78
2022-08-25T05:13:51.553Z,17.79
2022-08-25T05:16:19.940Z,17.86
2022-08-25T05:18:46.763Z,17.94
2022-08-25T05:21:16.506Z,18.04
2022-08-25T05:23:43.429Z,18.09
2022-08-25T05:26:19.709Z,18.14
2022-08-25T05:28:49.398Z,18.26
2022-08-25T05:31:17.018Z,18.35
2022-08-25T05:33:44.361Z,18.45
2022-08-25T05:36:13.254Z,18.57
2022-08-25T05:38:41.898Z,18.61
2022-08-25T05:41:17.027Z,18.69
2022-08-25T05:43:47.148Z,18.80
2022-08-25T05:46:14.452Z,18.87
2022-08-25T05:48:41.466Z,18.92
2022-08-25T05:51:10.347Z,19.06
2022-08-25T05:53:39.893Z,19.18
2022-08-25T05:56:06.770Z,19.59
2022-08-25T05:58:34.016Z,19.78
2022-08-25T06:01:21.370Z,20.02
2022-08-25T06:03:48.818Z,20.11
2022-08-25T06:06:16.474Z,20.25
2022-08-25T06:08:44.599Z,20.34
2022-08-25T06:11:13.236Z,20.70
2022-08-25T06:13:40.707Z,21.29
2022-08-25T06:16:07.720Z,21.39
2022-08-25T06:18:34.450Z,21.45
2022-08-25T06:21:14.796Z,21.41
2022-08-25T06:23:41.551Z,21.46
2022-08-25T06:26:20.604Z,21.88
2022-08-25T06:28:50.588Z,21.76
2022-08-25T06:31:18.897Z,21.83
2022-08-25T06:33:45.840Z,22.01
2022-08-25T06:36:12.828Z,22.14
2022-08-25T06:38:39.566Z,22.36
2022-08-25T06:41:07.968Z,22.47
2022-08-25T06:43:35.245Z,22.47
2022-08-25T06:46:17.956Z,22.33
2022-08-25T06:48:44.741Z,22.09
2022-08-25T06:51:13.855Z,21.86
2022-08-25T06:53:42.853Z,21.90
2022-08-25T06:56:10.239Z,21.95
2022-08-25T06:58:37.711Z,21.74
2022-08-25T07:01:15.768Z,21.68
2022-08-25T07:03:47.513Z,21.58
2022-08-25T07:06:15.179Z,21.42
2022-08-25T07:08:46.787Z,21.39
2022-08-25T07:11:18.086Z,21.44
2022-08-25T07:13:45.980Z,21.42
2022-08-25T07:16:15.349Z,21.57
2022-08-25T07:18:42.636Z,21.67
2022-08-25T07:21:12.306Z,21.83
2022-08-25T07:23:40.513Z,21.81
2022-08-25T07:26:15.809Z,21.92
2022-08-25T07:28:48.767Z,22.08
2022-08-25T07:31:17.558Z,22.26
2022-08-25T07:34:03.202Z,22.58
2022-08-25T07:36:31.646Z,23.20
2022-08-25T07:38:59.714Z,24.07
2022-08-25T07:41:26.915Z,24.22
2022-08-25T07:43:54.136Z,24.06
2022-08-25T07:46:20.826Z,24.16
2022-08-25T07:48:53.411Z,23.98
2022-08-25T07:51:20.335Z,23.83
2022-08-25T07:53:47.089Z,23.41
2022-08-25T07:56:16.771Z,23.40
2022-08-25T07:58:43.977Z,23.44
2022-08-25T08:01:18.468Z,23.16
2022-08-25T08:03:50.404Z,23.08
2022-08-25T08:06:21.097Z,23.14
2022-08-25T08:08:49.683Z,23.12
2022-08-25T08:11:27.963Z,23.05
2022-08-25T08:13:57.078Z,23.04
2022-08-25T08:16:26.860Z,22.96
2022-08-25T08:18:53.977Z,22.73
2022-08-25T08:21:24.767Z,22.58
2022-08-25T08:23:58.131Z,22.51
2022-08-25T08:26:36.338Z,22.44
2022-08-25T08:29:13.682Z,22.37
2022-08-25T08:31:40.740Z,22.24
2022-08-25T08:34:16.568Z,22.13
2022-08-25T08:36:43.362Z,22.23
2022-08-25T08:39:12.120Z,22.17
2022-08-25T08:42:11.312Z,22.06
2022-08-25T08:44:45.770Z,21.89
2022-08-25T08:47:30.443Z,22.01
2022-08-25T08:50:00.799Z,21.91
2022-08-25T08:52:44.569Z,21.83
2022-08-25T08:55:35.692Z,22.19
2022-08-25T08:58:10.516Z,22.04
2022-08-25T09:00:48.928Z,22.07
2022-08-25T09:03:44.602Z,22.19
2022-08-25T09:06:17.722Z,21.95
2022-08-25T09:08:45.161Z,21.85
2022-08-25T09:11:33.070Z,21.91
2022-08-25T09:14:08.398Z,21.94
2022-08-25T09:16:59.100Z,22.00
2022-08-25T09:20:02.886Z,22.04
2022-08-25T09:22:51.672Z,22.16
2022-08-25T09:28:30.312Z,22.54
2022-08-25T09:31:04.752Z,22.66
2022-08-25T09:33:35.403Z,22.66
2022-08-25T09:36:04.627Z,22.70
2022-08-25T09:38:33.674Z,22.69
2022-08-25T09:41:02.591Z,22.64
2022-08-25T09:43:35.263Z,22.54
2022-08-25T09:46:23.294Z,22.47
2022-08-25T09:48:56.777Z,22.52
2022-08-25T09:51:25.789Z,22.60
2022-08-25T09:53:57.826Z,22.62
2022-08-25T09:56:28.618Z,22.66
2022-08-25T09:59:02.402Z,22.50
2022-08-25T10:01:34.568Z,22.54
2022-08-25T10:04:04.764Z,22.61
2022-08-25T10:06:42.755Z,22.72
2022-08-25T10:09:22.187Z,22.98
2022-08-25T10:11:49.330Z,23.15
2022-08-25T10:14:18.309Z,23.35
2022-08-25T10:16:47.288Z,23.56
2022-08-25T10:19:29.423Z,23.70
2022-08-25T10:22:08.006Z,23.88
2022-08-25T10:24:39.152Z,23.93
2022-08-25T10:27:29.121Z,24.15
2022-08-25T10:30:08.175Z,24.15
2022-08-25T10:32:44.571Z,24.07
2022-08-25T10:35:29.151Z,23.71
2022-08-25T10:38:08.300Z,23.84
2022-08-25T10:40:51.789Z,24.19
2022-08-25T10:43:48.803Z,24.32
2022-08-25T10:46:41.787Z,24.49
2022-08-25T10:49:35.762Z,24.71
2022-08-25T10:52:05.724Z,25.05
2022-08-25T10:54:40.790Z,26.27
2022-08-25T10:57:32.055Z,28.61
2022-08-25T11:00:12.642Z,29.85
2022-08-25T11:03:01.763Z,31.27
2022-08-25T11:05:40.619Z,32.48
2022-08-25T11:08:14.435Z,33.98
2022-08-25T11:10:53.030Z,34.86
2022-08-25T11:13:31.412Z,35.00
2022-08-25T11:16:17.392Z,35.40
2022-08-25T11:19:15.803Z,36.25
2022-08-25T11:21:52.399Z,36.60
2022-08-25T11:24:39.178Z,36.06
2022-08-25T11:27:13.743Z,36.29
2022-08-25T11:29:42.699Z,36.84
2022-08-25T11:32:09.575Z,36.68
2022-08-25T11:34:43.551Z,36.92
2022-08-25T11:37:25.506Z,36.77
2022-08-25T11:40:13.619Z,36.97
2022-08-25T11:42:48.485Z,37.27
2022-08-25T11:45:33.825Z,37.19
2022-08-25T11:48:11.547Z,38.10
2022-08-25T11:50:59.971Z,38.08
2022-08-25T11:53:32.244Z,38.13
2022-08-25T11:56:06.648Z,37.95
2022-08-25T11:58:54.633Z,37.79
2022-08-25T12:01:40.107Z,37.65
2022-08-25T12:04:16.003Z,37.71
2022-08-25T12:07:10.572Z,37.53
2022-08-25T12:09:55.484Z,37.70
2022-08-25T12:12:37.195Z,37.28
2022-08-25T12:15:18.878Z,37.57
2022-08-25T12:18:08.533Z,37.47
2022-08-25T12:20:56.936Z,37.29
2022-08-25T12:24:01.888Z,37.89
2022-08-25T12:26:40.737Z,38.27
2022-08-25T12:29:41.569Z,37.06
2022-08-25T12:32:37.845Z,37.62
2022-08-25T12:35:31.863Z,34.18
2022-08-25T12:38:06.623Z,35.83
2022-08-25T12:40:45.393Z,34.59
2022-08-25T12:43:12.149Z,35.94
2022-08-25T12:45:44.733Z,36.14
2022-08-25T12:48:27.297Z,36.21
2022-08-25T12:51:15.223Z,36.16
2022-08-25T12:53:46.497Z,37.30
2022-08-25T12:56:26.586Z,37.58
2022-08-25T12:59:03.571Z,35.81
2022-08-25T13:02:07.065Z,36.09
2022-08-25T13:04:52.963Z,36.72
2022-08-25T13:07:44.399Z,36.61
2022-08-25T13:10:29.597Z,37.56
2022-08-25T13:13:09.616Z,37.41
2022-08-25T13:15:48.674Z,37.50
2022-08-25T13:18:33.085Z,37.17
2022-08-25T13:21:30.749Z,35.04
2022-08-25T13:24:01.446Z,36.39
2022-08-25T13:26:37.565Z,35.71
2022-08-25T13:29:24.347Z,36.23
2022-08-25T13:31:55.096Z,36.73
2022-08-25T13:34:34.990Z,36.46
2022-08-25T13:37:30.464Z,36.21
2022-08-25T13:40:17.825Z,37.02
2022-08-25T13:42:55.902Z,35.08
2022-08-25T13:45:26.042Z,34.33
2022-08-25T13:47:56.334Z,32.87
2022-08-25T13:50:27.223Z,31.87
2022-08-25T13:53:26.661Z,31.84
2022-08-25T13:56:02.316Z,31.13
2022-08-25T13:58:38.709Z,30.58
2022-08-25T14:01:23.128Z,31.08
2022-08-25T14:04:34.881Z,31.69
2022-08-25T14:07:14.041Z,31.22
2022-08-25T14:09:52.414Z,31.01
2022-08-25T14:12:33.201Z,30.89
2022-08-25T14:15:01.684Z,30.96
2022-08-25T14:17:39.315Z,31.12
2022-08-25T14:20:17.211Z,31.48
2022-08-25T14:22:44.072Z,31.44
2022-08-25T14:25:11.327Z,30.86
2022-08-25T14:28:03.575Z,30.39
2022-08-25T14:30:30.123Z,30.13
2022-08-25T14:32:57.243Z,30.32
2022-08-25T14:35:24.126Z,30.49
2022-08-25T14:37:51.049Z,30.23
2022-08-25T14:40:20.015Z,29.94
2022-08-25T14:42:47.810Z,29.79
2022-08-25T14:45:16.467Z,29.52
2022-08-25T14:47:46.351Z,29.57
2022-08-25T14:50:20.165Z,29.55
2022-08-25T14:52:48.343Z,29.55
2022-08-25T14:55:31.846Z,29.52
2022-08-25T14:57:59.778Z,29.07
2022-08-25T15:00:26.694Z,28.71
2022-08-25T15:02:55.048Z,28.72
2022-08-25T15:05:28.428Z,28.64
2022-08-25T15:08:14.296Z,28.60
2022-08-25T15:10:41.874Z,28.55
2022-08-25T15:13:10.528Z,28.61
2022-08-25T15:15:52.613Z,28.27
2022-08-25T15:18:21.847Z,28.14
2022-08-25T15:20:49.928Z,28.03
2022-08-25T15:23:18.567Z,28.06
2022-08-25T15:25:52.857Z,28.02
2022-08-25T15:28:22.236Z,28.03
2022-08-25T15:30:50.416Z,28.00
2022-08-25T15:33:17.659Z,27.94
2022-08-25T15:35:47.571Z,27.93
2022-08-25T15:38:16.877Z,27.85
2022-08-25T15:40:43.579Z,27.81
2022-08-25T15:43:10.363Z,27.82
2022-08-25T15:45:37.656Z,27.75
2022-08-25T15:48:06.901Z,27.74
2022-08-25T15:50:39.355Z,27.64
2022-08-25T15:53:06.322Z,27.60
2022-08-25T15:55:39.439Z,27.61
2022-08-25T15:58:06.768Z,27.69
2022-08-25T16:00:35.708Z,27.59
2022-08-25T16:03:04.813Z,27.61
2022-08-25T16:05:37.311Z,27.46
2022-08-25T16:08:04.811Z,27.39
2022-08-25T16:10:36.552Z,27.55
2022-08-25T16:13:04.758Z,27.50
2022-08-25T16:15:32.503Z,27.46
2022-08-25T16:18:00.574Z,27.53
2022-08-25T16:20:31.452Z,27.58
2022-08-25T16:23:02.473Z,27.43
2022-08-25T16:25:31.438Z,27.17
2022-08-25T16:27:58.127Z,27.15
2022-08-25T16:30:25.229Z,27.08
2022-08-25T16:32:54.351Z,27.10
2022-08-25T16:35:21.228Z,27.02
2022-08-25T16:37:49.561Z,27.05
2022-08-25T16:40:18.875Z,27.03
2022-08-25T16:42:46.739Z,26.94
2022-08-25T16:45:13.784Z,26.74
2022-08-25T16:47:42.746Z,26.60
2022-08-25T16:50:10.813Z,26.58
2022-08-25T16:52:56.499Z,26.37
2022-08-25T16:55:25.195Z,26.37
2022-08-25T16:57:54.218Z,26.19
2022-08-25T17:00:28.137Z,25.95
2022-08-25T17:02:59.377Z,25.85
2022-08-25T17:05:29.595Z,25.71
2022-08-25T17:08:17.506Z,25.52
2022-08-25T17:10:44.739Z,25.35
2022-08-25T17:13:12.816Z,25.20
2022-08-25T17:15:42.441Z,25.02
2022-08-25T17:18:11.191Z,25.00
2022-08-25T17:20:40.396Z,24.88
2022-08-25T17:23:12.703Z,24.83
2022-08-25T17:25:42.973Z,24.74
2022-08-25T17:28:11.922Z,24.56
2022-08-25T17:30:39.311Z,24.43
2022-08-25T17:33:06.087Z,24.27
2022-08-25T17:35:38.858Z,24.12
2022-08-25T17:38:06.274Z,23.98
2022-08-25T17:40:33.987Z,23.89
2022-08-25T17:43:01.790Z,23.79
2022-08-25T17:45:28.450Z,23.67
2022-08-25T17:47:55.662Z,23.62
2022-08-25T17:50:24.581Z,23.49
2022-08-25T17:52:52.420Z,23.41
2022-08-25T17:55:24.175Z,23.28
2022-08-25T17:57:51.275Z,23.16
2022-08-25T18:00:20.014Z,23.07
2022-08-25T18:02:50.134Z,23.04
2022-08-25T18:05:17.495Z,22.98
2022-08-25T18:07:44.189Z,22.91
2022-08-25T18:10:11.518Z,22.81
2022-08-25T18:12:39.210Z,22.66
2022-08-25T18:15:08.211Z,22.55
2022-08-25T18:17:35.826Z,22.47
2022-08-25T18:20:06.226Z,22.40
2022-08-25T18:22:33.166Z,22.28
2022-08-25T18:25:00.305Z,22.21
2022-08-25T18:27:28.405Z,22.08
2022-08-25T18:29:56.025Z,22.01
2022-08-25T18:32:26.112Z,21.95
2022-08-25T18:34:53.393Z,21.88
2022-08-25T18:37:39.167Z,21.80
2022-08-25T18:40:25.446Z,21.72
2022-08-25T18:42:57.945Z,21.66
2022-08-25T18:45:28.439Z,21.60
2022-08-25T18:47:58.132Z,21.58
2022-08-25T18:50:30.354Z,21.54
2022-08-25T18:52:57.477Z,21.44
2022-08-25T18:55:24.634Z,21.44
2022-08-25T18:57:51.677Z,21.36
2022-08-25T19:00:21.251Z,21.31
2022-08-25T19:02:52.790Z,21.27
2022-08-25T19:05:24.228Z,21.19
2022-08-25T19:07:54.228Z,21.12
2022-08-25T19:10:24.071Z,21.10
2022-08-25T19:12:52.178Z,21.07
2022-08-25T19:15:18.901Z,20.95
2022-08-25T19:17:53.161Z,20.96
2022-08-25T19:20:21.882Z,20.91
2022-08-25T19:22:49.449Z,20.89
2022-08-25T19:25:18.598Z,20.84
2022-08-25T19:27:46.310Z,20.82
2022-08-25T19:30:14.749Z,20.74
2022-08-25T19:32:43.830Z,20.71
2022-08-25T19:35:34.524Z,20.65
2022-08-25T19:38:07.160Z,20.61
2022-08-25T19:40:52.156Z,20.52
2022-08-25T19:43:19.060Z,20.54
2022-08-25T19:45:46.401Z,20.52
2022-08-25T19:48:14.099Z,20.49
2022-08-25T19:50:42.228Z,20.46
2022-08-25T19:53:09.038Z,20.46
2022-08-25T19:55:35.955Z,20.39
2022-08-25T19:58:03.555Z,20.42
2022-08-25T20:00:34.136Z,20.37
2022-08-25T20:03:04.149Z,20.28
2022-08-25T20:05:31.581Z,20.22
2022-08-25T20:07:59.578Z,20.19
2022-08-25T20:10:29.719Z,20.20
2022-08-25T20:12:56.678Z,20.13
2022-08-25T20:15:24.812Z,20.09
2022-08-25T20:17:51.776Z,20.03
2022-08-25T20:20:25.778Z,19.99
2022-08-25T20:23:19.766Z,19.92
2022-08-25T20:25:46.719Z,19.90
2022-08-25T20:28:18.649Z,19.90
2022-08-25T20:30:46.121Z,19.85
2022-08-25T20:33:13.345Z,19.88
2022-08-25T20:35:48.339Z,19.87
2022-08-25T20:38:15.031Z,19.89
2022-08-25T20:40:42.086Z,19.86
2022-08-25T20:43:12.090Z,19.83
2022-08-25T20:45:39.582Z,19.80
2022-08-25T20:48:06.390Z,19.75
2022-08-25T20:50:33.742Z,19.70
2022-08-25T20:53:00.931Z,19.69
2022-08-25T20:55:28.886Z,19.68
2022-08-25T20:57:55.534Z,19.67
2022-08-25T21:00:25.302Z,19.69
2022-08-25T21:02:53.423Z,19.72
2022-08-25T21:05:20.217Z,19.71
2022-08-25T21:07:46.993Z,19.67
2022-08-25T21:10:15.961Z,19.66
2022-08-25T21:12:45.240Z,19.62
2022-08-25T21:15:13.178Z,19.57
2022-08-25T21:17:49.690Z,19.58
2022-08-25T21:20:17.179Z,19.52
2022-08-25T21:22:43.828Z,19.47
2022-08-25T21:25:10.980Z,19.45
2022-08-25T21:27:37.764Z,19.43
2022-08-25T21:30:06.843Z,19.39
2022-08-25T21:32:34.589Z,19.41
2022-08-25T21:35:01.559Z,19.43
2022-08-25T21:37:28.356Z,19.41
2022-08-25T21:39:55.237Z,19.40
2022-08-25T21:42:23.843Z,19.33
2022-08-25T21:44:52.212Z,19.28
2022-08-25T21:47:21.231Z,19.29
2022-08-25T21:49:48.787Z,19.24
2022-08-25T21:52:15.859Z,19.23
2022-08-25T21:54:43.949Z,19.19
2022-08-25T21:57:10.676Z,19.16
2022-08-25T21:59:43.507Z,19.10
2022-08-25T22:02:13.110Z,19.08
2022-08-25T22:04:40.701Z,19.01
2022-08-25T22:07:08.815Z,18.92
2022-08-25T22:09:36.112Z,18.89
2022-08-25T22:12:04.678Z,18.88
2022-08-25T22:14:32.390Z,18.88
2022-08-25T22:16:59.995Z,18.88
2022-08-25T22:19:27.284Z,18.77
2022-08-25T22:21:55.580Z,18.70
2022-08-25T22:24:22.449Z,18.68
2022-08-25T22:26:51.460Z,18.66
2022-08-25T22:29:23.241Z,18.66
2022-08-25T22:31:59.826Z,18.62
2022-08-25T22:34:32.462Z,18.59
2022-08-25T22:37:01.319Z,18.53
2022-08-25T22:39:31.886Z,18.48
2022-08-25T22:41:58.890Z,18.48
2022-08-25T22:44:26.345Z,18.42
2022-08-25T22:46:54.275Z,18.38
2022-08-25T22:49:21.800Z,18.34
2022-08-25T22:51:48.880Z,18.28
2022-08-25T22:54:15.876Z,18.32
2022-08-25T22:56:42.964Z,18.35
2022-08-25T22:59:12.516Z,18.29
2022-08-25T23:01:39.830Z,18.28
2022-08-25T23:04:07.414Z,18.23
2022-08-25T23:06:37.200Z,18.18
2022-08-25T23:09:06.708Z,18.15
2022-08-25T23:11:33.719Z,18.14
2022-08-25T23:14:00.619Z,18.12
2022-08-25T23:16:28.481Z,18.14
2022-08-25T23:18:55.273Z,18.10
2022-08-25T23:21:41.275Z,18.10
2022-08-25T23:24:11.347Z,18.04
2022-08-25T23:26:42.518Z,18.02
2022-08-25T23:29:18.488Z,18.00
2022-08-25T23:31:47.738Z,18.00
2022-08-25T23:34:15.479Z,17.97
2022-08-25T23:36:42.928Z,18.02
2022-08-25T23:39:11.525Z,17.90
2022-08-25T23:41:38.440Z,17.87
2022-08-25T23:44:17.433Z,17.87
2022-08-25T23:46:47.098Z,17.87
2022-08-25T23:49:18.397Z,17.85
2022-08-25T23:51:50.324Z,17.81
2022-08-25T23:54:20.455Z,17.85
2022-08-25T23:56:52.382Z,17.84
2022-08-25T23:59:24.192Z,17.79
